Angora, NE (69331)

5:35 PM MDT on March 30, 2015 (GMT -0600)
Wayne Rd. | | Change Station
CLOSE
Current Station
Personal Weather Station
Location: Alliance, NE
Elevation: 4091 ft
Nearby Weather Stations
Active Advisory: Fire Weather Watch Active Notice: Public Information Statement

Elev 4091 ft 42.02 °N, 103.05 °W | Updated 10 minutes ago

Clear
Clear
68.9 °F
Feels Like 68.9 °F
N
4.0
Wind Variable Wind from West
Gusts 13.0 mph

Today
High -- | Low -- °F
--% Chance of Precip.
Yesterday
High -- | Low -- °F
Precip. -- in
6:38 AM 7:15 PM
Waxing Gibbous, 83% visible
Pressure 30.01 in
Visibility 10.0 miles
Clouds Clear
Dew Point 27 °F
Humidity 21%
Rainfall 0.00 in
Snow Depth Not available.
UV 2 out of 12
Pollen 11.10 out of 12
Air Quality Not available.
Flu Activity Not available.
METAR KAIA 302253Z AUTO 30012G20KT 10SM CLR 21/M03 A3003 RMK AO2 SLP161 T02061033

More Conditions Fewer Conditions

Pressure 30.01 in
Visibility 10.0 miles
Clouds Clear
Dew Point 27 °F
Humidity 21%
Rainfall 0.00 in
Snow Depth Not available.
UV 2 out of 12
Pollen 11.10 out of 12
Air Quality Not available.
Flu Activity Not available.
METAR KAIA 302253Z AUTO 30012G20KT 10SM CLR 21/M03 A3003 RMK AO2 SLP161 T02061033

More Conditions Fewer Conditions

10-Day Weather Forecast

Almanac

Astronomy

Mar. 30, 2015 Rise Set
Actual Time
Civil Twilight
Nautical Twilight
Astronomical Twilight
Moon
Length of Visible Light
Length of Day
Tomorrow will be .
, % of the Moon is Illuminated

Today's Extremes

State Highs State Lows

Community

WunderPhotos

Upload Photos

1,809,618 photos uploaded!

WunderBlogs® & News

Nearby

Air Quality

  Air Quality AQ Index Pollutant
Not available.

Snow Depth

Station Depth Elevation

Earthquake Activity

City Distance Mag. Time & Date
Minimum magnitude displayed is 2.5.

Coastal Water Temperatures

Place Temperature

Stations

Nearby Weather Stations

Station Location Temp. Windchill Dew Point Humidity Wind Precip. Elev Updated Type
                   
Fire Weather Watch
Statement as of 2:47 PM MDT on March 30, 2015

... Fire Weather Watch remains in effect from Tuesday morning
through Tuesday evening for gusty winds and low humidities for
fire weather zones 301... 311... 312 and 313...

* affected area... fire weather zones 301... 311... 312 and 313.

* Wind... west at 15 to 20 mph sustained with gusts to 30 mph.

* Humidity... afternoon humidities of 8 to 12 percent for areas
east of the Laramie range.

* Impacts... any fires that develop will likely spread rapidly.
Outdoor burning is not recommended.

Precautionary/preparedness actions...

A Fire Weather Watch means that critical fire weather conditions
are forecast to occur. Listen for later forecasts and possible
red flag warnings.